DNKN

Mallam Aminu International Airport

Kano, Nigeria
METAR DNKN 172000Z VRB02KT 5000 HZ NSC 23/06 Q1016 NOSIG
Observed Flight Rules
Dec-17 @ 20:00 UTC (an hour ago) Marginal Visual Flight Rules
Wind Visibility Clouds Conditions
Variable at 2 knots 5,005 meters
  • Clear skies
  • Haze
Temperatures Readings
Current 23°C / 73°F
Dewpoint 6°C / 43°F
Humidity 33%
Altimeter 30" Hg
Pressure 1016 hPa
Elevation 481
METAR DNKN 172000Z VRB02KT 5000 HZ NSC 23/06 Q1016 NOSIG
Observed Flight Rules
Dec-17 @ 20:00 UTC
(an hour ago)
MVFR
Wind Visibility
Variable at 2 knots 5,005 meters
Clouds
  • Clear skies
Conditions
  • Haze
Temperature Dewpoint
23°C / 73°F 6°C / 43°F
Humidity Altimeter Pressure
33% 30" Hg 1016 hPa